Time;durP1;ratioP1;P1;durP2;ratioP2;P2;SDS_P1;SDS_P2;PMS_P1;PMS_P2;Temp;Humidity;BMP_temperature;BMP_pressure;BME280_temperature;BME280_humidity;BME280_pressure;Samples;Min_cycle;Max_cycle;Signal;HPM_P1;HPM_P2
2022/07/15 00:02:09;;;;;;;;;;;15.30;99.90;;;;;;5065750;28;19947;-77
2022/07/15 00:04:37;;;;;;;;;;;15.20;99.90;;;;;;5064849;28;19998;-77
2022/07/15 00:07:04;;;;;;;;;;;15.20;99.90;;;;;;5064565;28;19928;-77
2022/07/15 00:12:17;;;;;;;;;;;15.10;99.90;;;;;;5063397;28;19928;-75
2022/07/15 00:14:44;;;;;;;;;;;15.10;99.90;;;;;;5063904;28;21283;-77
2022/07/15 00:17:10;;;;;;;;;;;15.00;99.90;;;;;;5062243;28;19936;-76
2022/07/15 00:19:37;;;;;;;;;;;15.00;99.90;;;;;;5064473;28;19936;-77
2022/07/15 00:22:04;;;;;;;;;;;15.00;99.90;;;;;;5062313;28;19928;-77
2022/07/15 00:24:32;;;;;;;;;;;14.90;99.90;;;;;;5062000;28;19925;-77
2022/07/15 00:26:59;;;;;;;;;;;14.90;99.90;;;;;;5062842;28;19932;-77
2022/07/15 00:29:26;;;;;;;;;;;14.80;99.90;;;;;;5064066;28;19932;-75
2022/07/15 00:31:54;;;;;;;;;;;14.80;99.90;;;;;;5061182;28;19933;-76
2022/07/15 00:34:20;;;;;;;;;;;14.70;99.90;;;;;;5059217;28;19931;-76
2022/07/15 00:36:47;;;;;;;;;;;14.70;99.90;;;;;;5069413;28;19940;-76
2022/07/15 00:39:14;;;;;;;;;;;14.60;99.90;;;;;;5059223;28;20271;-75
2022/07/15 00:41:43;;;;;;;;;;;14.60;99.90;;;;;;5056798;28;19964;-75
2022/07/15 00:44:10;;;;;;;;;;;14.60;99.90;;;;;;5058530;28;20289;-75
2022/07/15 00:46:37;;;;;;;;;;;14.60;99.90;;;;;;5057518;28;20416;-76
2022/07/15 00:49:04;;;;;;;;;;;14.50;99.90;;;;;;5073842;28;19939;-76
2022/07/15 00:51:35;;;;;;;;;;;14.50;99.90;;;;;;5060224;28;19936;-76
2022/07/15 00:54:03;;;;;;;;;;;14.40;99.90;;;;;;5060980;28;19955;-74
2022/07/15 00:56:30;;;;;;;;;;;14.40;99.90;;;;;;5058326;28;20343;-74
2022/07/15 00:58:59;;;;;;;;;;;14.30;99.90;;;;;;5061447;28;19943;-76
2022/07/15 01:01:26;;;;;;;;;;;14.30;99.90;;;;;;5060063;28;19928;-76
2022/07/15 01:03:53;;;;;;;;;;;14.30;99.90;;;;;;5058813;28;19939;-76
2022/07/15 01:06:20;;;;;;;;;;;14.30;99.90;;;;;;5060808;28;20463;-76
2022/07/15 01:08:47;;;;;;;;;;;14.20;99.90;;;;;;5073067;28;19932;-75
2022/07/15 01:11:14;;;;;;;;;;;14.20;99.90;;;;;;5059410;28;19935;-76
2022/07/15 01:13:41;;;;;;;;;;;14.20;99.90;;;;;;5060276;28;19940;-76
2022/07/15 01:16:09;;;;;;;;;;;14.20;99.90;;;;;;5056936;28;19932;-75
2022/07/15 01:18:36;;;;;;;;;;;14.20;99.90;;;;;;5056815;28;19975;-74
2022/07/15 01:21:05;;;;;;;;;;;14.20;99.90;;;;;;5057605;28;19932;-75
2022/07/15 01:23:31;;;;;;;;;;;14.30;99.90;;;;;;5056626;28;19940;-75
2022/07/15 01:26:10;;;;;;;;;;;14.30;99.90;;;;;;5068151;28;19932;-75
2022/07/15 01:28:37;;;;;;;;;;;14.40;99.90;;;;;;5057408;28;19933;-75
2022/07/15 01:31:05;;;;;;;;;;;14.50;99.90;;;;;;5055648;28;19933;-75
2022/07/15 01:33:34;;;;;;;;;;;14.60;99.90;;;;;;5072497;28;19940;-75
2022/07/15 01:36:01;;;;;;;;;;;14.60;99.90;;;;;;5068978;28;19933;-75
2022/07/15 01:38:31;;;;;;;;;;;14.70;99.90;;;;;;5057271;28;20323;-75
2022/07/15 01:41:02;;;;;;;;;;;14.80;99.90;;;;;;5057183;28;19939;-75
2022/07/15 01:43:29;;;;;;;;;;;14.80;99.90;;;;;;5051680;28;19967;-75
2022/07/15 01:45:56;;;;;;;;;;;14.90;99.90;;;;;;5058576;28;20039;-74
2022/07/15 01:51:34;;;;;;;;;;;15.10;99.90;;;;;;5057586;28;19935;-75
2022/07/15 01:54:02;;;;;;;;;;;15.10;99.90;;;;;;5055252;28;20028;-74
2022/07/15 01:56:29;;;;;;;;;;;15.10;99.90;;;;;;5053667;28;19963;-74
2022/07/15 01:58:56;;;;;;;;;;;14.90;99.90;;;;;;5053758;28;19995;-76
2022/07/15 02:01:23;;;;;;;;;;;15.00;99.90;;;;;;5050480;28;19940;-76
2022/07/15 02:03:51;;;;;;;;;;;14.90;99.90;;;;;;5057330;28;19935;-75
2022/07/15 02:06:18;;;;;;;;;;;14.90;99.90;;;;;;5059025;28;20019;-75
2022/07/15 02:08:45;;;;;;;;;;;14.70;99.90;;;;;;5059433;28;19933;-75
2022/07/15 02:11:16;;;;;;;;;;;14.70;99.90;;;;;;5058380;28;20036;-75
2022/07/15 02:13:46;;;;;;;;;;;14.60;99.90;;;;;;5073509;28;19967;-74
2022/07/15 02:16:14;;;;;;;;;;;14.60;99.90;;;;;;5060000;28;19932;-74
2022/07/15 02:18:41;;;;;;;;;;;14.40;99.90;;;;;;5059476;28;19932;-75
2022/07/15 02:21:08;;;;;;;;;;;14.40;99.90;;;;;;5056436;28;21252;-75
2022/07/15 02:23:35;;;;;;;;;;;14.40;99.90;;;;;;5061639;28;19959;-76
2022/07/15 02:26:01;;;;;;;;;;;14.30;99.90;;;;;;5057286;28;19951;-76
2022/07/15 02:28:31;;;;;;;;;;;14.20;99.90;;;;;;5071473;28;20367;-76
2022/07/15 02:30:58;;;;;;;;;;;14.20;99.90;;;;;;5053051;28;20012;-74
2022/07/15 02:33:25;;;;;;;;;;;14.20;99.90;;;;;;5058861;28;19932;-74
2022/07/15 02:35:51;;;;;;;;;;;14.20;99.90;;;;;;5053831;28;19932;-75
2022/07/15 02:38:19;;;;;;;;;;;14.10;99.90;;;;;;5064274;28;20025;-74
2022/07/15 02:40:48;;;;;;;;;;;14.10;99.90;;;;;;5066664;28;19938;-75
2022/07/15 02:43:16;;;;;;;;;;;14.00;99.90;;;;;;5063388;28;19933;-75
2022/07/15 02:45:45;;;;;;;;;;;13.90;99.90;;;;;;5068198;28;19933;-76
2022/07/15 02:48:16;;;;;;;;;;;13.90;99.90;;;;;;5081478;28;19994;-76
2022/07/15 02:50:46;;;;;;;;;;;13.80;99.90;;;;;;5067986;28;21114;-76
2022/07/15 02:53:15;;;;;;;;;;;13.80;99.90;;;;;;5069848;28;19968;-75
2022/07/15 02:55:42;;;;;;;;;;;13.70;99.90;;;;;;5070155;28;20018;-75
2022/07/15 02:58:09;;;;;;;;;;;13.60;99.90;;;;;;5071959;28;19932;-75
2022/07/15 03:00:38;;;;;;;;;;;13.60;99.90;;;;;;5071307;28;19932;-75
2022/07/15 03:03:06;;;;;;;;;;;13.50;99.90;;;;;;5084332;28;20417;-75
2022/07/15 03:05:36;;;;;;;;;;;13.40;99.90;;;;;;5070834;28;19932;-76
2022/07/15 03:08:03;;;;;;;;;;;13.30;99.90;;;;;;5085255;28;19940;-76
2022/07/15 03:10:29;;;;;;;;;;;13.30;99.90;;;;;;5072955;28;20022;-75
2022/07/15 03:12:56;;;;;;;;;;;13.20;99.90;;;;;;5071526;28;19933;-75
2022/07/15 03:15:23;;;;;;;;;;;13.20;99.90;;;;;;5070562;28;19933;-76
2022/07/15 03:17:50;;;;;;;;;;;13.10;99.90;;;;;;5075107;28;21376;-74
2022/07/15 03:20:18;;;;;;;;;;;13.10;99.90;;;;;;5074627;28;19936;-76
2022/07/15 03:22:48;;;;;;;;;;;13.00;99.90;;;;;;5072909;28;19939;-74
2022/07/15 03:25:15;;;;;;;;;;;12.90;99.90;;;;;;5064764;28;20028;-74
2022/07/15 03:27:42;;;;;;;;;;;12.90;99.90;;;;;;5060037;28;19936;-73
2022/07/15 03:30:12;;;;;;;;;;;12.80;99.90;;;;;;5058818;28;19924;-75
2022/07/15 03:32:39;;;;;;;;;;;12.80;99.90;;;;;;5059953;28;19971;-75
2022/07/15 03:35:06;;;;;;;;;;;12.80;99.90;;;;;;5058791;28;19932;-75
2022/07/15 03:37:38;;;;;;;;;;;12.90;99.90;;;;;;5059917;28;20558;-75
2022/07/15 03:40:05;;;;;;;;;;;12.70;99.90;;;;;;5065674;28;20370;-75
2022/07/15 03:42:35;;;;;;;;;;;12.70;99.90;;;;;;5059903;28;19966;-75
2022/07/15 03:45:02;;;;;;;;;;;12.60;99.90;;;;;;5071051;28;19936;-75
2022/07/15 03:47:30;;;;;;;;;;;12.60;99.90;;;;;;5067961;28;19924;-75
2022/07/15 03:49:57;;;;;;;;;;;12.60;99.90;;;;;;5064317;28;19928;-75
2022/07/15 03:52:23;;;;;;;;;;;12.60;99.90;;;;;;5053159;28;19932;-76
2022/07/15 03:54:51;;;;;;;;;;;12.60;99.90;;;;;;5060458;28;19932;-76
2022/07/15 03:57:18;;;;;;;;;;;12.60;99.90;;;;;;5070554;28;20316;-75
2022/07/15 03:59:47;;;;;;;;;;;12.60;99.90;;;;;;5060701;28;19932;-76
2022/07/15 04:02:14;;;;;;;;;;;12.60;99.90;;;;;;5070754;28;19925;-76
2022/07/15 04:04:41;;;;;;;;;;;12.60;99.90;;;;;;5054948;28;20461;-76
2022/07/15 04:07:08;;;;;;;;;;;12.60;99.90;;;;;;5058147;28;19986;-75
2022/07/15 04:09:34;;;;;;;;;;;12.70;99.90;;;;;;5053091;28;19928;-75
2022/07/15 04:12:03;;;;;;;;;;;12.80;99.90;;;;;;5055277;28;19932;-75
2022/07/15 04:14:30;;;;;;;;;;;12.90;99.90;;;;;;5064436;28;19928;-75
2022/07/15 04:16:57;;;;;;;;;;;12.90;99.90;;;;;;5060146;28;19929;-75
2022/07/15 04:19:30;;;;;;;;;;;13.10;99.90;;;;;;5053598;28;19925;-75
2022/07/15 04:21:59;;;;;;;;;;;13.20;99.90;;;;;;5076157;28;20026;-75
2022/07/15 04:24:26;;;;;;;;;;;13.20;99.90;;;;;;5051359;28;19974;-75
2022/07/15 04:26:53;;;;;;;;;;;13.40;99.90;;;;;;5061721;28;19929;-76
2022/07/15 04:29:21;;;;;;;;;;;13.60;99.90;;;;;;5059445;28;19928;-76
2022/07/15 04:31:48;;;;;;;;;;;13.60;99.90;;;;;;5075860;28;19974;-75
2022/07/15 04:34:21;;;;;;;;;;;13.70;99.90;;;;;;5063716;28;19952;-76
2022/07/15 04:36:48;;;;;;;;;;;13.80;99.90;;;;;;5055821;28;19925;-76
2022/07/15 04:39:15;;;;;;;;;;;14.00;99.90;;;;;;5052408;28;19929;-76
2022/07/15 04:41:42;;;;;;;;;;;14.10;99.90;;;;;;5058417;28;20027;-76
2022/07/15 04:44:08;;;;;;;;;;;15.90;99.90;;;;;;5064917;28;19925;-76
2022/07/15 04:46:37;;;;;;;;;;;14.40;99.90;;;;;;5061241;28;19982;-76
2022/07/15 04:52:12;;;;;;;;;;;14.60;99.90;;;;;;5034672;28;19939;-76
2022/07/15 04:54:42;;;;;;;;;;;14.70;99.90;;;;;;5059636;28;20131;-76
2022/07/15 04:57:09;;;;;;;;;;;14.80;99.90;;;;;;5075338;28;19924;-76
2022/07/15 04:59:36;;;;;;;;;;;14.90;99.90;;;;;;5055232;28;19928;-77
2022/07/15 05:02:05;;;;;;;;;;;15.00;99.90;;;;;;5054928;28;20447;-77
2022/07/15 05:04:38;;;;;;;;;;;15.20;99.90;;;;;;5064492;28;19929;-77
2022/07/15 05:07:07;;;;;;;;;;;15.30;99.90;;;;;;5058704;28;19975;-75
2022/07/15 05:09:36;;;;;;;;;;;15.60;99.90;;;;;;5056968;28;20322;-75
2022/07/15 05:12:05;;;;;;;;;;;15.60;99.90;;;;;;5063657;28;20050;-75
2022/07/15 05:14:40;;;;;;;;;;;15.80;99.90;;;;;;5047534;28;19960;-75
2022/07/15 05:17:09;;;;;;;;;;;15.90;99.90;;;;;;5052792;28;20053;-75
2022/07/15 05:19:36;;;;;;;;;;;16.10;99.90;;;;;;5056146;28;20511;-76
2022/07/15 05:22:04;;;;;;;;;;;16.30;99.90;;;;;;5055800;28;19963;-74
2022/07/15 05:24:32;;;;;;;;;;;16.50;99.90;;;;;;5058495;28;20290;-75
2022/07/15 05:27:03;;;;;;;;;;;16.80;99.90;;;;;;5063440;28;19961;-78
2022/07/15 05:29:32;;;;;;;;;;;17.00;99.90;;;;;;5054433;28;19932;-76
2022/07/15 05:31:59;;;;;;;;;;;17.30;99.90;;;;;;5053837;28;20023;-76
2022/07/15 05:34:28;;;;;;;;;;;17.60;99.90;;;;;;5060225;28;19950;-76
2022/07/15 05:36:54;;;;;;;;;;;17.90;99.90;;;;;;5058720;22;19928;-76
2022/07/15 05:39:23;;;;;;;;;;;18.30;99.90;;;;;;5053857;28;20017;-75
2022/07/15 05:41:53;;;;;;;;;;;19.80;99.90;;;;;;5049497;28;20382;-77
2022/07/15 05:44:20;;;;;;;;;;;23.10;99.90;;;;;;5050221;28;19940;-77
2022/07/15 05:46:50;;;;;;;;;;;23.20;99.90;;;;;;5045778;28;20294;-77
2022/07/15 05:49:17;;;;;;;;;;;24.90;99.90;;;;;;5053450;28;19983;-77
2022/07/15 05:51:46;;;;;;;;;;;26.30;99.90;;;;;;5050449;28;19937;-77
2022/07/15 05:54:14;;;;;;;;;;;27.60;99.90;;;;;;5051471;28;19925;-76
2022/07/15 05:56:42;;;;;;;;;;;28.80;99.90;;;;;;5046445;28;19929;-75
2022/07/15 05:59:10;;;;;;;;;;;29.80;99.90;;;;;;5047484;28;19925;-76
2022/07/15 06:01:37;;;;;;;;;;;30.90;99.90;;;;;;5047279;28;19933;-76
2022/07/15 06:04:04;;;;;;;;;;;31.40;99.90;;;;;;5049235;28;20361;-76
2022/07/15 06:06:30;;;;;;;;;;;32.20;99.90;;;;;;5044847;28;19946;-76
2022/07/15 06:09:00;;;;;;;;;;;33.70;99.90;;;;;;5038093;28;19929;-75
2022/07/15 06:11:27;;;;;;;;;;;33.80;98.00;;;;;;5051737;28;20205;-77
2022/07/15 06:13:54;;;;;;;;;;;34.40;94.80;;;;;;5062512;28;20328;-77
2022/07/15 06:16:20;;;;;;;;;;;34.80;90.30;;;;;;5050351;28;19932;-78
2022/07/15 06:18:50;;;;;;;;;;;34.70;89.40;;;;;;5065220;28;19937;-78
2022/07/15 06:21:17;;;;;;;;;;;34.70;87.30;;;;;;5054369;28;19979;-77
2022/07/15 06:23:45;;;;;;;;;;;35.20;86.60;;;;;;5048162;28;19924;-75
2022/07/15 06:26:13;;;;;;;;;;;35.70;82.30;;;;;;5051246;28;19929;-75
2022/07/15 06:28:42;;;;;;;;;;;36.60;78.40;;;;;;5060379;28;19978;-77
2022/07/15 06:31:09;;;;;;;;;;;36.60;79.60;;;;;;5040718;28;19925;-77
2022/07/15 06:33:36;;;;;;;;;;;37.10;76.90;;;;;;5039171;28;19932;-76
2022/07/15 06:36:04;;;;;;;;;;;35.90;69.90;;;;;;5048094;28;19932;-76
2022/07/15 06:38:31;;;;;;;;;;;34.80;68.00;;;;;;5053724;28;20566;-76
2022/07/15 06:40:58;;;;;;;;;;;33.30;68.50;;;;;;5048598;28;19948;-76
2022/07/15 06:43:26;;;;;;;;;;;31.90;69.60;;;;;;5059034;28;19925;-76
2022/07/15 06:46:08;;;;;;;;;;;30.20;70.30;;;;;;5051380;28;19939;-75
2022/07/15 06:48:34;;;;;;;;;;;27.00;74.70;;;;;;5052452;28;19936;-77
2022/07/15 06:51:01;;;;;;;;;;;26.90;75.50;;;;;;5051340;28;19936;-77
2022/07/15 06:53:28;;;;;;;;;;;26.00;77.50;;;;;;5047941;28;19933;-74
2022/07/15 06:55:55;;;;;;;;;;;25.20;79.00;;;;;;5044794;28;19928;-76
2022/07/15 06:58:22;;;;;;;;;;;24.50;79.90;;;;;;5044298;28;20330;-76
2022/07/15 07:00:51;;;;;;;;;;;23.90;81.10;;;;;;5055529;28;19929;-78
2022/07/15 07:03:18;;;;;;;;;;;23.50;81.90;;;;;;5049922;28;19944;-78
2022/07/15 07:05:46;;;;;;;;;;;23.10;82.00;;;;;;5054054;28;20436;-78
2022/07/15 07:08:14;;;;;;;;;;;22.80;82.80;;;;;;5057129;28;19924;-78
2022/07/15 07:10:41;;;;;;;;;;;22.50;83.20;;;;;;5049617;28;20380;-76
2022/07/15 07:13:09;;;;;;;;;;;22.20;83.40;;;;;;5048879;28;20365;-76
2022/07/15 07:15:35;;;;;;;;;;;21.80;83.50;;;;;;5053074;28;19972;-77
2022/07/15 07:18:03;;;;;;;;;;;21.70;84.70;;;;;;5055888;28;19981;-76
2022/07/15 07:20:30;;;;;;;;;;;21.50;85.20;;;;;;5051708;28;19928;-76
2022/07/15 07:22:57;;;;;;;;;;;21.30;85.90;;;;;;5053659;28;19928;-76
2022/07/15 07:25:24;;;;;;;;;;;21.20;87.00;;;;;;5049297;28;19998;-76
2022/07/15 07:27:51;;;;;;;;;;;21.00;87.50;;;;;;5056521;28;19929;-77
2022/07/15 07:30:18;;;;;;;;;;;20.80;87.80;;;;;;5054500;28;19925;-77
2022/07/15 07:32:44;;;;;;;;;;;21.10;89.20;;;;;;5047954;28;19929;-77
2022/07/15 07:35:12;;;;;;;;;;;22.60;91.10;;;;;;5041537;28;19929;-77
2022/07/15 07:37:40;;;;;;;;;;;24.30;91.60;;;;;;5058226;28;20295;-76
2022/07/15 07:40:07;;;;;;;;;;;25.50;90.00;;;;;;5039521;28;19933;-75
2022/07/15 07:42:34;;;;;;;;;;;26.00;88.70;;;;;;5040451;28;19935;-75
2022/07/15 07:45:01;;;;;;;;;;;26.20;87.20;;;;;;5044249;28;20384;-75
2022/07/15 07:47:28;;;;;;;;;;;26.10;85.50;;;;;;5040860;28;20646;-75
2022/07/15 07:49:55;;;;;;;;;;;25.80;84.60;;;;;;5042191;28;20030;-74
2022/07/15 07:52:23;;;;;;;;;;;25.30;84.10;;;;;;5046928;28;19936;-75
2022/07/15 07:54:50;;;;;;;;;;;25.30;85.30;;;;;;5049904;28;20002;-77
2022/07/15 07:57:17;;;;;;;;;;;25.50;85.60;;;;;;5060933;28;20031;-78
2022/07/15 07:59:43;;;;;;;;;;;25.90;85.50;;;;;;5054329;28;20405;-76
2022/07/15 08:02:10;;;;;;;;;;;26.70;85.80;;;;;;5057935;28;19939;-78
2022/07/15 08:04:38;;;;;;;;;;;27.50;83.80;;;;;;5047053;28;20033;-76
2022/07/15 08:07:05;;;;;;;;;;;28.50;84.30;;;;;;5045441;28;19928;-77
2022/07/15 08:09:34;;;;;;;;;;;29.50;82.10;;;;;;5050535;28;19939;-77
2022/07/15 08:12:01;;;;;;;;;;;30.50;79.30;;;;;;5050169;28;20081;-77
2022/07/15 08:14:28;;;;;;;;;;;31.40;77.80;;;;;;5052180;28;20451;-77
2022/07/15 08:16:55;;;;;;;;;;;32.10;73.80;;;;;;5042677;28;19937;-77
2022/07/15 08:19:22;;;;;;;;;;;32.50;70.60;;;;;;5041576;28;19933;-77
2022/07/15 08:21:49;;;;;;;;;;;32.70;68.40;;;;;;5052674;28;19939;-77
2022/07/15 08:24:15;;;;;;;;;;;32.40;65.20;;;;;;5040890;28;19940;-77
2022/07/15 08:26:44;;;;;;;;;;;31.30;63.80;;;;;;5041650;28;19932;-77
2022/07/15 08:29:11;;;;;;;;;;;28.80;67.30;;;;;;5042524;28;19978;-77
2022/07/15 08:31:38;;;;;;;;;;;28.60;67.90;;;;;;5041681;28;21407;-76
2022/07/15 08:34:05;;;;;;;;;;;27.60;69.00;;;;;;5039780;28;20023;-76
2022/07/15 08:36:32;;;;;;;;;;;27.00;70.80;;;;;;5041380;28;20728;-76
2022/07/15 08:38:59;;;;;;;;;;;27.40;74.40;;;;;;5043110;28;19929;-76
2022/07/15 08:41:26;;;;;;;;;;;27.60;74.10;;;;;;5040817;28;19932;-75
2022/07/15 08:43:54;;;;;;;;;;;28.40;73.60;;;;;;5039910;28;19933;-75
2022/07/15 08:46:21;;;;;;;;;;;29.20;71.90;;;;;;5039634;28;19947;-75
2022/07/15 08:48:49;;;;;;;;;;;30.90;69.90;;;;;;5041052;28;20333;-76
2022/07/15 08:51:19;;;;;;;;;;;30.90;70.20;;;;;;5049568;28;20530;-75
2022/07/15 08:53:45;;;;;;;;;;;31.20;66.70;;;;;;5052792;28;19925;-76
2022/07/15 08:56:12;;;;;;;;;;;31.00;65.80;;;;;;5065291;28;20405;-75
2022/07/15 08:58:39;;;;;;;;;;;30.40;63.80;;;;;;5040000;28;20352;-75
2022/07/15 09:01:08;;;;;;;;;;;29.60;64.00;;;;;;5039716;28;20421;-75
2022/07/15 09:03:34;;;;;;;;;;;28.60;65.40;;;;;;5042383;28;20019;-75
2022/07/15 09:06:01;;;;;;;;;;;27.70;66.60;;;;;;5041131;28;19932;-75
2022/07/15 09:08:28;;;;;;;;;;;27.00;67.80;;;;;;5035802;28;20099;-75
2022/07/15 09:10:56;;;;;;;;;;;26.40;68.60;;;;;;5033961;28;19943;-75
2022/07/15 09:13:28;;;;;;;;;;;25.80;69.70;;;;;;5037365;28;20064;-76
2022/07/15 09:15:56;;;;;;;;;;;25.40;71.70;;;;;;5034883;28;19936;-77
2022/07/15 09:18:25;;;;;;;;;;;25.50;73.20;;;;;;5038979;28;19928;-77
2022/07/15 09:20:52;;;;;;;;;;;25.80;72.30;;;;;;5032134;28;19937;-77
2022/07/15 09:23:22;;;;;;;;;;;26.20;73.90;;;;;;5033399;28;19939;-77
2022/07/15 09:25:50;;;;;;;;;;;27.00;74.10;;;;;;5033399;28;20027;-77
2022/07/15 09:28:17;;;;;;;;;;;27.80;71.90;;;;;;5038139;28;19957;-77
2022/07/15 09:33:37;;;;;;;;;;;29.10;69.30;;;;;;5040509;28;20043;-77
2022/07/15 09:36:07;;;;;;;;;;;29.50;69.40;;;;;;5036714;28;20267;-77
2022/07/15 09:38:35;;;;;;;;;;;29.90;68.00;;;;;;5047612;28;19924;-77
2022/07/15 09:41:02;;;;;;;;;;;29.90;65.50;;;;;;5043653;28;19994;-78
2022/07/15 09:43:31;;;;;;;;;;;29.50;65.30;;;;;;5044283;28;20560;-78
2022/07/15 09:45:59;;;;;;;;;;;28.70;65.00;;;;;;5040282;28;20623;-78
2022/07/15 09:48:28;;;;;;;;;;;27.80;66.60;;;;;;5047630;28;19929;-77
2022/07/15 09:51:02;;;;;;;;;;;27.10;68.00;;;;;;5051558;28;20602;-76
2022/07/15 09:53:29;;;;;;;;;;;26.40;69.40;;;;;;5057365;28;19932;-75
2022/07/15 09:55:56;;;;;;;;;;;26.10;70.50;;;;;;5049008;28;19932;-77
2022/07/15 09:58:22;;;;;;;;;;;25.80;70.90;;;;;;5053864;28;19933;-76
2022/07/15 10:00:51;;;;;;;;;;;25.80;71.20;;;;;;5041468;28;19929;-76
2022/07/15 10:03:17;;;;;;;;;;;25.80;71.60;;;;;;5035336;28;20250;-76
2022/07/15 10:05:44;;;;;;;;;;;25.90;71.70;;;;;;5051137;28;19928;-76
2022/07/15 10:08:15;;;;;;;;;;;26.00;72.00;;;;;;5048564;28;19951;-76
2022/07/15 10:10:41;;;;;;;;;;;26.00;70.90;;;;;;5053419;28;19928;-76
2022/07/15 10:13:17;;;;;;;;;;;26.00;71.80;;;;;;5050088;28;19929;-76
2022/07/15 10:15:47;;;;;;;;;;;25.90;71.70;;;;;;5050947;28;19928;-76
2022/07/15 10:18:23;;;;;;;;;;;25.80;71.30;;;;;;5051722;28;19982;-76
2022/07/15 10:21:03;;;;;;;;;;;25.70;71.70;;;;;;5063794;28;19935;-75
2022/07/15 10:23:39;;;;;;;;;;;25.70;71.90;;;;;;5048881;28;19996;-75
2022/07/15 10:26:14;;;;;;;;;;;25.20;71.70;;;;;;5061366;28;19967;-75
2022/07/15 10:28:48;;;;;;;;;;;25.30;72.50;;;;;;5044804;28;20330;-75
2022/07/15 10:31:17;;;;;;;;;;;25.20;71.70;;;;;;5052661;28;20027;-75
2022/07/15 10:34:00;;;;;;;;;;;25.10;72.00;;;;;;5051600;28;19929;-76
2022/07/15 10:36:38;;;;;;;;;;;25.20;72.60;;;;;;5045378;28;19998;-77
2022/07/15 10:39:09;;;;;;;;;;;25.40;71.90;;;;;;5054802;28;19931;-76
2022/07/15 10:41:52;;;;;;;;;;;25.40;71.70;;;;;;5055758;28;19929;-76
2022/07/15 10:44:19;;;;;;;;;;;25.50;71.70;;;;;;5060703;28;20027;-78
2022/07/15 10:47:09;;;;;;;;;;;25.60;73.30;;;;;;5054264;28;19973;-78
2022/07/15 10:49:37;;;;;;;;;;;25.90;72.60;;;;;;5052638;28;19925;-78
2022/07/15 10:52:14;;;;;;;;;;;26.00;72.10;;;;;;5054527;28;20452;-77
2022/07/15 10:54:44;;;;;;;;;;;26.10;72.30;;;;;;5048543;28;19924;-78
2022/07/15 10:57:13;;;;;;;;;;;26.10;71.40;;;;;;5052479;28;20007;-77
2022/07/15 10:59:47;;;;;;;;;;;25.80;70.70;;;;;;5043464;28;19928;-76
2022/07/15 11:02:16;;;;;;;;;;;25.80;71.40;;;;;;5053634;28;19925;-77
2022/07/15 11:04:46;;;;;;;;;;;25.80;71.20;;;;;;5051901;28;19925;-78
2022/07/15 11:07:19;;;;;;;;;;;25.70;69.20;;;;;;5053834;28;19929;-77
2022/07/15 11:09:48;;;;;;;;;;;25.60;70.30;;;;;;5046749;28;19929;-77
2022/07/15 11:12:16;;;;;;;;;;;25.60;70.40;;;;;;5048443;28;19976;-77
2022/07/15 11:14:48;;;;;;;;;;;25.60;69.80;;;;;;5057977;28;19974;-76
2022/07/15 11:17:18;;;;;;;;;;;25.50;70.70;;;;;;5058082;28;20390;-75
2022/07/15 11:19:49;;;;;;;;;;;25.40;70.50;;;;;;5056362;28;19967;-76
2022/07/15 11:22:17;;;;;;;;;;;25.40;71.40;;;;;;5060369;28;19924;-75
2022/07/15 11:24:45;;;;;;;;;;;25.50;71.50;;;;;;5053576;28;19925;-76
2022/07/15 11:27:16;;;;;;;;;;;25.60;71.00;;;;;;5056293;28;19939;-76
2022/07/15 11:29:48;;;;;;;;;;;25.70;70.40;;;;;;5056899;28;20000;-76
2022/07/15 11:32:15;;;;;;;;;;;25.70;66.70;;;;;;5050992;28;19925;-76
2022/07/15 11:34:43;;;;;;;;;;;25.80;67.10;;;;;;5052203;28;19986;-76
2022/07/15 11:37:11;;;;;;;;;;;25.80;67.20;;;;;;5053574;28;19928;-76
2022/07/15 11:39:38;;;;;;;;;;;25.50;67.50;;;;;;5068689;28;19928;-76
2022/07/15 11:44:51;;;;;;;;;;;25.40;68.40;;;;;;5042806;28;19967;-77
2022/07/15 11:47:19;;;;;;;;;;;25.60;69.40;;;;;;5048236;28;20350;-76
2022/07/15 11:49:46;;;;;;;;;;;25.90;69.00;;;;;;5050799;28;19978;-77
2022/07/15 11:52:28;;;;;;;;;;;25.90;69.40;;;;;;5054047;28;19924;-77
2022/07/15 11:54:56;;;;;;;;;;;25.90;69.20;;;;;;5060263;28;19933;-77
2022/07/15 11:57:27;;;;;;;;;;;25.90;68.80;;;;;;5055499;28;19929;-76
2022/07/15 12:00:04;;;;;;;;;;;25.80;67.60;;;;;;5051581;28;20024;-77
2022/07/15 12:02:40;;;;;;;;;;;25.80;68.20;;;;;;5060741;28;19952;-76
2022/07/15 12:05:08;;;;;;;;;;;25.70;68.60;;;;;;5051260;28;19929;-76
2022/07/15 12:07:43;;;;;;;;;;;25.80;69.10;;;;;;5054654;28;19925;-76
2022/07/15 12:10:14;;;;;;;;;;;25.80;68.90;;;;;;5058057;28;20294;-76
2022/07/15 12:12:42;;;;;;;;;;;25.90;68.40;;;;;;5054628;28;19929;-76
2022/07/15 12:15:10;;;;;;;;;;;26.00;68.10;;;;;;5052698;28;20297;-76
2022/07/15 12:17:37;;;;;;;;;;;26.00;68.60;;;;;;5054843;28;19925;-75
2022/07/15 12:20:06;;;;;;;;;;;26.10;69.00;;;;;;5062374;28;19982;-76
2022/07/15 12:22:35;;;;;;;;;;;26.20;68.80;;;;;;5050291;28;19928;-75
2022/07/15 12:25:02;;;;;;;;;;;26.40;68.20;;;;;;5060495;28;19932;-75
2022/07/15 12:27:35;;;;;;;;;;;26.40;68.00;;;;;;5058517;28;19939;-74
2022/07/15 12:30:02;;;;;;;;;;;26.50;68.00;;;;;;5050163;28;20390;-75
2022/07/15 12:32:31;;;;;;;;;;;26.60;68.30;;;;;;5045782;28;19960;-76
2022/07/15 12:34:58;;;;;;;;;;;26.80;68.20;;;;;;5050775;28;19932;-76
2022/07/15 12:37:26;;;;;;;;;;;27.00;67.50;;;;;;5055069;28;19925;-76
2022/07/15 12:39:57;;;;;;;;;;;27.30;67.30;;;;;;5050363;28;19928;-76
2022/07/15 12:42:24;;;;;;;;;;;27.40;67.70;;;;;;5054257;28;19943;-76
2022/07/15 12:45:06;;;;;;;;;;;27.60;66.60;;;;;;5040119;28;19948;-77
2022/07/15 12:47:34;;;;;;;;;;;27.40;65.30;;;;;;5041410;28;19943;-77
2022/07/15 12:50:01;;;;;;;;;;;27.20;66.00;;;;;;5043752;28;19937;-76
2022/07/15 12:52:34;;;;;;;;;;;26.90;65.00;;;;;;5045647;28;19935;-77
2022/07/15 12:55:12;;;;;;;;;;;26.50;65.60;;;;;;5029997;28;19937;-77
2022/07/15 12:57:39;;;;;;;;;;;26.10;66.00;;;;;;5030526;28;20036;-78
2022/07/15 13:00:08;;;;;;;;;;;26.10;65.60;;;;;;5033360;28;19943;-78
2022/07/15 13:02:50;;;;;;;;;;;26.10;66.10;;;;;;5032713;28;21941;-78
2022/07/15 13:05:18;;;;;;;;;;;26.10;65.80;;;;;;5031268;28;19936;-78
2022/07/15 13:07:46;;;;;;;;;;;26.20;66.20;;;;;;5029996;28;19933;-78
2022/07/15 13:10:13;;;;;;;;;;;26.40;66.10;;;;;;5037857;28;19929;-78
2022/07/15 13:12:40;;;;;;;;;;;26.50;66.30;;;;;;5029759;28;20069;-78
2022/07/15 13:15:07;;;;;;;;;;;26.70;66.40;;;;;;5030732;28;19937;-78
2022/07/15 13:17:46;;;;;;;;;;;27.00;66.30;;;;;;5029485;28;20512;-78
2022/07/15 13:20:32;;;;;;;;;;;27.20;66.10;;;;;;5036316;28;19933;-78
2022/07/15 13:23:10;;;;;;;;;;;27.50;65.50;;;;;;5049257;28;19950;-77
2022/07/15 13:25:43;;;;;;;;;;;27.60;65.00;;;;;;5041814;28;19944;-77
2022/07/15 13:28:17;;;;;;;;;;;27.50;64.90;;;;;;5041607;28;19929;-78
2022/07/15 13:30:49;;;;;;;;;;;27.70;65.00;;;;;;5049337;28;19939;-78
2022/07/15 13:33:22;;;;;;;;;;;27.80;64.90;;;;;;5058057;28;19947;-78
2022/07/15 13:35:55;;;;;;;;;;;28.00;64.80;;;;;;5051180;28;19925;-78
2022/07/15 13:38:35;;;;;;;;;;;28.20;65.00;;;;;;5078272;28;19975;-78
2022/07/15 13:41:01;;;;;;;;;;;28.10;62.50;;;;;;5072206;28;19932;-77
2022/07/15 13:43:30;;;;;;;;;;;27.30;63.00;;;;;;5065734;28;19979;-76
2022/07/15 13:46:02;;;;;;;;;;;27.30;63.40;;;;;;5062260;28;19925;-77
2022/07/15 13:48:32;;;;;;;;;;;26.80;64.10;;;;;;5056168;28;19951;-77
2022/07/15 13:53:49;;;;;;;;;;;25.90;65.00;;;;;;5061525;28;19928;-77
2022/07/15 13:56:45;;;;;;;;;;;25.40;65.80;;;;;;5057282;28;19929;-77
2022/07/15 13:59:21;;;;;;;;;;;25.00;65.90;;;;;;5010198;28;19934;-77
2022/07/15 14:01:53;;;;;;;;;;;25.00;66.40;;;;;;5055966;28;19944;-78
2022/07/15 14:04:31;;;;;;;;;;;24.90;67.40;;;;;;5053391;28;20306;-78
2022/07/15 14:07:07;;;;;;;;;;;24.70;67.80;;;;;;5059523;28;19929;-77
2022/07/15 14:09:39;;;;;;;;;;;24.40;67.20;;;;;;5065157;28;19967;-78
2022/07/15 14:12:15;;;;;;;;;;;24.30;67.10;;;;;;5084247;22;19968;-74
2022/07/15 14:14:45;;;;;;;;;;;24.20;67.60;;;;;;5073927;28;19928;-72
2022/07/15 14:17:12;;;;;;;;;;;24.10;67.50;;;;;;5089862;28;19939;-74
2022/07/15 14:19:39;;;;;;;;;;;24.00;67.90;;;;;;5077377;28;19947;-77
2022/07/15 14:22:05;;;;;;;;;;;23.90;68.80;;;;;;5067655;28;19928;-77
2022/07/15 14:24:32;;;;;;;;;;;23.90;69.20;;;;;;5067058;28;19929;-76
2022/07/15 14:27:00;;;;;;;;;;;24.00;69.60;;;;;;5076288;28;19940;-79
2022/07/15 14:29:27;;;;;;;;;;;24.10;69.90;;;;;;5066881;28;20019;-77
2022/07/15 14:31:54;;;;;;;;;;;24.20;70.20;;;;;;5065942;28;19928;-73
2022/07/15 14:34:21;;;;;;;;;;;24.20;69.40;;;;;;5084210;28;19933;-74
2022/07/15 14:36:48;;;;;;;;;;;24.20;69.80;;;;;;5085658;28;19924;-74
2022/07/15 14:39:15;;;;;;;;;;;24.40;70.10;;;;;;5080489;28;20135;-74
2022/07/15 14:41:41;;;;;;;;;;;24.90;70.40;;;;;;5075217;28;19938;-75
2022/07/15 14:44:09;;;;;;;;;;;25.00;70.20;;;;;;5077233;28;20006;-74